createdAt,value
2022-11-02T00:00:15.038Z,26.70
2022-11-02T00:03:03.115Z,27.70
2022-11-02T00:05:31.138Z,27.45
2022-11-02T00:07:58.215Z,28.13
2022-11-02T00:10:25.271Z,28.70
2022-11-02T00:12:52.634Z,27.23
2022-11-02T00:15:19.562Z,24.63
2022-11-02T00:17:51.147Z,25.40
2022-11-02T00:20:18.486Z,26.65
2022-11-02T00:22:45.850Z,29.33
2022-11-02T00:25:12.897Z,27.80
2022-11-02T00:27:40.306Z,26.80
2022-11-02T00:30:08.192Z,28.67
2022-11-02T00:32:35.214Z,27.95
2022-11-02T00:35:02.000Z,29.13
2022-11-02T00:37:29.052Z,31.88
2022-11-02T00:39:55.881Z,31.08
2022-11-02T00:42:22.855Z,31.60
2022-11-02T00:44:49.586Z,31.30
2022-11-02T00:47:16.606Z,27.95
2022-11-02T00:49:43.381Z,32.22
2022-11-02T00:52:10.398Z,33.05
2022-11-02T00:54:37.134Z,29.92
2022-11-02T00:57:04.261Z,29.45
2022-11-02T00:59:31.052Z,29.45
2022-11-02T01:01:58.265Z,28.80
2022-11-02T01:04:25.218Z,31.58
2022-11-02T01:06:52.286Z,29.63
2022-11-02T01:09:19.052Z,27.20
2022-11-02T01:11:46.089Z,28.60
2022-11-02T01:14:12.845Z,30.48
2022-11-02T01:16:41.371Z,29.17
2022-11-02T01:19:08.220Z,31.25
2022-11-02T01:21:35.246Z,31.48
2022-11-02T01:24:02.013Z,30.05
2022-11-02T01:26:29.025Z,29.05
2022-11-02T01:28:55.796Z,26.80
2022-11-02T01:31:22.764Z,24.50
2022-11-02T01:33:49.697Z,28.20
2022-11-02T01:36:19.908Z,33.15
2022-11-02T01:38:47.021Z,27.35
2022-11-02T01:41:14.000Z,31.15
2022-11-02T01:43:41.509Z,31.05
2022-11-02T01:46:11.592Z,30.75
2022-11-02T01:48:45.613Z,32.53
2022-11-02T01:51:15.812Z,32.13
2022-11-02T01:53:44.852Z,30.15
2022-11-02T01:56:12.780Z,31.58
2022-11-02T01:58:39.589Z,40.10
2022-11-02T02:01:06.773Z,33.33
2022-11-02T02:03:33.668Z,37.20
2022-11-02T02:06:07.141Z,34.13
2022-11-02T02:08:33.904Z,36.45
2022-11-02T02:11:00.948Z,31.05
2022-11-02T02:13:27.972Z,40.20
2022-11-02T02:15:57.904Z,30.25
2022-11-02T02:18:30.444Z,36.50
2022-11-02T02:21:00.491Z,32.97
2022-11-02T02:23:31.266Z,32.65
2022-11-02T02:26:08.008Z,35.45
2022-11-02T02:28:43.284Z,31.75
2022-11-02T02:31:29.007Z,33.65
2022-11-02T02:34:01.703Z,31.45
2022-11-02T02:36:34.592Z,33.58
2022-11-02T02:39:05.240Z,32.83
2022-11-02T02:41:40.576Z,30.40
2022-11-02T02:44:16.821Z,34.22
2022-11-02T02:46:55.915Z,34.33
2022-11-02T02:49:29.615Z,38.53
2022-11-02T02:51:56.633Z,40.20
2022-11-02T02:54:26.407Z,36.13
2022-11-02T02:56:56.080Z,34.83
2022-11-02T02:59:25.528Z,37.10
2022-11-02T03:01:52.615Z,36.47
2022-11-02T03:04:19.463Z,36.75
2022-11-02T03:06:52.543Z,32.65
2022-11-02T03:09:40.968Z,35.30
2022-11-02T03:12:13.915Z,40.28
2022-11-02T03:14:58.691Z,37.25
2022-11-02T03:17:52.403Z,36.53
2022-11-02T03:20:24.711Z,38.85
2022-11-02T03:22:53.763Z,34.53
2022-11-02T03:25:32.218Z,37.15
2022-11-02T03:28:26.395Z,40.75
2022-11-02T03:30:57.752Z,37.33
2022-11-02T03:33:35.032Z,38.15
2022-11-02T03:36:06.447Z,33.47
2022-11-02T03:38:49.257Z,38.90
2022-11-02T03:41:16.014Z,37.53
2022-11-02T03:43:43.000Z,38.20
2022-11-02T03:46:10.175Z,37.95
2022-11-02T03:48:40.672Z,34.20
2022-11-02T03:51:10.218Z,37.15
2022-11-02T03:54:02.852Z,31.95
2022-11-02T03:56:42.097Z,35.58
2022-11-02T03:59:09.175Z,32.05
2022-11-02T04:01:40.640Z,31.33
2022-11-02T04:04:07.755Z,35.40
2022-11-02T04:06:34.510Z,33.17
2022-11-02T04:09:01.759Z,31.95
2022-11-02T04:11:47.206Z,36.05
2022-11-02T04:17:18.149Z,31.67
2022-11-02T04:19:48.691Z,31.20
2022-11-02T04:22:35.619Z,32.58
2022-11-02T04:25:20.685Z,29.92
2022-11-02T04:27:49.098Z,33.00
2022-11-02T04:30:17.449Z,32.63
2022-11-02T04:33:04.105Z,32.47
2022-11-02T04:35:31.220Z,32.85
2022-11-02T04:38:16.979Z,33.08
2022-11-02T04:40:44.181Z,27.35
2022-11-02T04:43:10.930Z,28.77
2022-11-02T04:45:38.071Z,30.33
2022-11-02T04:48:06.953Z,27.98
2022-11-02T04:50:34.536Z,33.50
2022-11-02T04:53:02.423Z,27.75
2022-11-02T04:55:29.694Z,29.95
2022-11-02T04:57:56.452Z,36.25
2022-11-02T05:00:23.642Z,33.83
2022-11-02T05:02:50.742Z,31.17
2022-11-02T05:05:17.963Z,35.78
2022-11-02T05:07:44.758Z,31.45
2022-11-02T05:10:11.825Z,37.97
2022-11-02T05:12:38.630Z,36.55
2022-11-02T05:15:06.118Z,33.50
2022-11-02T05:17:32.984Z,32.90
2022-11-02T05:19:59.978Z,31.70
2022-11-02T05:22:26.745Z,30.02
2022-11-02T05:24:53.761Z,31.92
2022-11-02T05:27:20.823Z,29.13
2022-11-02T05:29:47.813Z,31.77
2022-11-02T05:32:14.569Z,32.88
2022-11-02T05:34:41.533Z,33.40
2022-11-02T05:37:08.336Z,33.45
2022-11-02T05:39:37.183Z,32.25
2022-11-02T05:42:04.241Z,35.42
2022-11-02T05:44:31.329Z,34.80
2022-11-02T05:46:58.124Z,34.78
2022-11-02T05:49:25.153Z,38.63
2022-11-02T05:51:51.922Z,36.97
2022-11-02T05:54:19.004Z,40.33
2022-11-02T05:56:45.826Z,45.53
2022-11-02T05:59:12.804Z,45.97
2022-11-02T06:01:39.652Z,41.97
2022-11-02T06:04:06.795Z,51.92
2022-11-02T06:06:33.668Z,53.83
2022-11-02T06:09:05.774Z,60.00
2022-11-02T06:11:33.836Z,62.30
2022-11-02T06:14:00.893Z,58.13
2022-11-02T06:16:27.739Z,64.25
2022-11-02T06:18:54.919Z,67.53
2022-11-02T06:21:21.707Z,66.05
2022-11-02T06:23:48.967Z,55.80
2022-11-02T06:26:15.904Z,55.42
2022-11-02T06:28:42.994Z,53.67
2022-11-02T06:31:09.788Z,56.58
2022-11-02T06:33:36.889Z,54.63
2022-11-02T06:36:03.961Z,51.45
2022-11-02T06:38:30.980Z,57.50
2022-11-02T06:41:03.529Z,55.15
2022-11-02T06:43:30.682Z,48.50
2022-11-02T06:45:57.958Z,47.67
2022-11-02T06:48:29.861Z,46.58
2022-11-02T06:50:58.263Z,44.15
2022-11-02T06:53:25.385Z,43.50
2022-11-02T06:55:55.652Z,45.90
2022-11-02T06:58:25.842Z,43.58
2022-11-02T07:01:00.215Z,44.83
2022-11-02T07:03:27.823Z,40.70
2022-11-02T07:05:54.627Z,42.42
2022-11-02T07:08:22.359Z,42.08
2022-11-02T07:10:49.204Z,43.83
2022-11-02T07:13:16.249Z,37.97
2022-11-02T07:15:43.020Z,40.35
2022-11-02T07:18:10.982Z,45.60
2022-11-02T07:20:38.483Z,39.90
2022-11-02T07:23:05.858Z,38.95
2022-11-02T07:25:33.487Z,38.85
2022-11-02T07:28:01.197Z,37.60
2022-11-02T07:30:29.530Z,37.22
2022-11-02T07:32:56.680Z,35.45
2022-11-02T07:35:23.567Z,34.30
2022-11-02T07:38:04.451Z,37.50
2022-11-02T07:40:32.153Z,36.60
2022-11-02T07:42:59.319Z,35.70
2022-11-02T07:45:26.136Z,33.30
2022-11-02T07:47:53.243Z,32.47
2022-11-02T07:50:21.414Z,33.80
2022-11-02T07:52:52.969Z,33.40
2022-11-02T07:55:22.031Z,30.60
2022-11-02T07:58:09.328Z,34.55
2022-11-02T08:00:37.530Z,31.35
2022-11-02T08:03:05.944Z,30.02
2022-11-02T08:05:40.470Z,29.50
2022-11-02T08:08:09.598Z,31.92
2022-11-02T08:10:39.200Z,30.27
2022-11-02T08:13:12.417Z,27.75
2022-11-02T08:15:39.225Z,26.23
2022-11-02T08:18:16.784Z,28.63
2022-11-02T08:20:43.766Z,28.17
2022-11-02T08:23:11.192Z,30.55
2022-11-02T08:25:38.312Z,31.15
2022-11-02T08:28:06.267Z,29.70
2022-11-02T08:30:33.648Z,25.35
2022-11-02T08:33:04.901Z,29.13
2022-11-02T08:35:31.854Z,28.08
2022-11-02T08:38:00.077Z,28.02
2022-11-02T08:40:27.164Z,24.85
2022-11-02T08:42:57.969Z,25.80
2022-11-02T08:45:25.470Z,28.25
2022-11-02T08:47:52.762Z,22.13
2022-11-02T08:50:19.555Z,24.90
2022-11-02T08:52:46.573Z,26.60
2022-11-02T08:55:13.348Z,26.20
2022-11-02T08:57:50.108Z,22.83
2022-11-02T09:00:18.041Z,22.90
2022-11-02T09:02:45.325Z,22.88
2022-11-02T09:05:12.094Z,25.38
2022-11-02T09:07:39.142Z,27.80
2022-11-02T09:10:07.680Z,27.17
2022-11-02T09:12:34.800Z,26.38
2022-11-02T09:15:01.559Z,26.58
2022-11-02T09:17:29.198Z,27.27
2022-11-02T09:19:55.947Z,24.30
2022-11-02T09:22:23.075Z,27.38
2022-11-02T09:24:49.833Z,27.13
2022-11-02T09:27:16.877Z,26.88
2022-11-02T09:29:43.643Z,26.60
2022-11-02T09:32:10.914Z,28.33
2022-11-02T09:34:37.755Z,32.50
2022-11-02T09:37:04.901Z,27.95
2022-11-02T09:39:31.698Z,32.05
2022-11-02T09:42:14.240Z,27.33
2022-11-02T09:44:49.479Z,25.83
2022-11-02T09:50:03.467Z,29.75
2022-11-02T09:52:34.434Z,29.35
2022-11-02T09:55:01.293Z,28.85
2022-11-02T09:57:30.672Z,27.65
2022-11-02T09:59:57.687Z,29.40
2022-11-02T10:02:42.901Z,27.52
2022-11-02T10:05:37.644Z,24.92
2022-11-02T10:08:49.194Z,24.35
2022-11-02T10:11:16.131Z,25.48
2022-11-02T10:13:57.271Z,24.80
2022-11-02T10:16:32.837Z,27.48
2022-11-02T10:18:59.942Z,24.35
2022-11-02T10:21:33.936Z,21.80
2022-11-02T10:24:13.361Z,20.87
2022-11-02T10:26:43.462Z,21.20
2022-11-02T10:29:17.984Z,20.58
2022-11-02T10:31:44.783Z,21.70
2022-11-02T10:34:25.651Z,19.90
2022-11-02T10:37:15.180Z,17.80
2022-11-02T10:40:03.655Z,20.98
2022-11-02T10:43:20.986Z,21.65
2022-11-02T10:45:48.155Z,17.95
2022-11-02T10:48:21.498Z,17.42
2022-11-02T10:51:06.989Z,21.73
2022-11-02T10:53:41.600Z,20.17
2022-11-02T10:56:30.611Z,20.50
2022-11-02T10:59:11.191Z,17.70
2022-11-02T11:01:38.320Z,17.00
2022-11-02T11:04:29.213Z,15.05
2022-11-02T11:06:59.307Z,16.88
2022-11-02T11:09:31.251Z,16.75
2022-11-02T11:12:14.081Z,15.80
2022-11-02T11:20:35.865Z,12.70
2022-11-02T11:23:15.760Z,14.18
2022-11-02T11:25:43.203Z,13.77
2022-11-02T11:28:42.720Z,12.90
2022-11-02T11:31:10.957Z,11.80
2022-11-02T11:33:48.692Z,12.10
2022-11-02T11:36:30.589Z,10.98
2022-11-02T11:39:03.669Z,10.07
2022-11-02T11:41:31.261Z,10.20
2022-11-02T11:43:58.069Z,11.93
2022-11-02T11:46:25.230Z,10.82
2022-11-02T11:48:55.984Z,11.15
2022-11-02T11:51:32.207Z,11.75
2022-11-02T11:54:26.957Z,10.43
2022-11-02T11:56:58.121Z,8.30
2022-11-02T11:59:53.023Z,7.22
2022-11-02T12:02:24.153Z,10.15
2022-11-02T12:04:51.203Z,8.00
2022-11-02T12:07:36.208Z,8.85
2022-11-02T12:10:16.992Z,7.30
2022-11-02T12:13:05.886Z,9.48
2022-11-02T12:16:09.836Z,7.95
2022-11-02T12:19:18.250Z,9.50
2022-11-02T12:21:48.125Z,6.97
2022-11-02T12:24:32.489Z,7.95
2022-11-02T12:27:22.838Z,8.03
2022-11-02T12:30:14.493Z,9.93
2022-11-02T12:33:03.523Z,7.03
2022-11-02T12:35:50.067Z,8.82
2022-11-02T12:38:55.679Z,9.45
2022-11-02T12:41:43.423Z,9.95
2022-11-02T12:44:13.280Z,10.25
2022-11-02T12:46:48.761Z,10.20
2022-11-02T12:49:54.176Z,14.82
2022-11-02T12:52:50.343Z,9.65
2022-11-02T12:55:19.189Z,9.65
2022-11-02T12:57:46.669Z,11.63
2022-11-02T13:00:21.667Z,10.13
2022-11-02T13:02:57.853Z,9.63
2022-11-02T13:05:35.089Z,11.98
2022-11-02T13:08:14.894Z,12.55
2022-11-02T13:10:52.375Z,10.68
2022-11-02T13:13:28.767Z,10.50
2022-11-02T13:15:55.887Z,10.05
2022-11-02T13:18:29.470Z,11.75
2022-11-02T13:20:57.835Z,12.55
2022-11-02T13:23:34.172Z,11.35
2022-11-02T13:26:03.554Z,11.35
2022-11-02T13:28:43.555Z,14.73
2022-11-02T13:31:44.768Z,13.02
2022-11-02T13:34:29.675Z,13.65
2022-11-02T13:36:56.830Z,14.90
2022-11-02T13:39:31.920Z,14.65
2022-11-02T13:42:06.413Z,13.07
2022-11-02T13:44:51.998Z,14.98
2022-11-02T13:47:37.723Z,17.45
2022-11-02T13:50:04.885Z,12.50
2022-11-02T13:52:34.973Z,14.30
2022-11-02T13:55:02.219Z,12.77
2022-11-02T13:57:35.183Z,13.82
2022-11-02T14:00:06.305Z,14.10
2022-11-02T14:02:35.653Z,12.73
2022-11-02T14:05:02.743Z,12.65
2022-11-02T14:07:32.985Z,12.30
2022-11-02T14:10:29.621Z,14.00
2022-11-02T14:12:56.376Z,13.27
2022-11-02T14:15:23.476Z,14.20
2022-11-02T14:17:53.095Z,13.52
2022-11-02T14:20:38.634Z,13.25
2022-11-02T14:23:12.078Z,12.48
2022-11-02T14:25:51.770Z,13.60
2022-11-02T14:28:21.808Z,13.02
2022-11-02T14:30:49.524Z,13.23
2022-11-02T14:33:25.317Z,13.23
2022-11-02T14:36:02.292Z,14.02
2022-11-02T14:38:38.115Z,13.05
2022-11-02T14:41:30.791Z,12.52
2022-11-02T14:44:35.368Z,15.98
2022-11-02T14:47:10.021Z,12.98
2022-11-02T14:49:56.101Z,11.17
2022-11-02T14:52:28.488Z,13.57
2022-11-02T14:54:59.759Z,13.00
2022-11-02T14:57:42.722Z,12.23
2022-11-02T15:00:18.803Z,13.65
2022-11-02T15:02:45.948Z,12.73
2022-11-02T15:05:34.751Z,12.68
2022-11-02T15:08:06.686Z,10.38
2022-11-02T15:10:41.640Z,13.55
2022-11-02T15:15:50.483Z,13.52
2022-11-02T15:18:31.386Z,14.32
2022-11-02T15:21:10.246Z,12.68
2022-11-02T15:24:18.014Z,11.38
2022-11-02T15:26:55.734Z,11.95
2022-11-02T15:29:33.534Z,16.25
2022-11-02T15:32:00.274Z,13.93
2022-11-02T15:34:40.256Z,14.10
2022-11-02T15:37:07.458Z,14.48
2022-11-02T15:39:34.502Z,13.18
2022-11-02T15:42:27.644Z,14.82
2022-11-02T15:45:34.509Z,12.70
2022-11-02T15:48:32.297Z,14.48
2022-11-02T15:51:08.237Z,13.32
2022-11-02T15:53:40.001Z,14.40
2022-11-02T15:56:26.031Z,13.45
2022-11-02T16:01:39.732Z,14.70
2022-11-02T16:04:07.126Z,12.23
2022-11-02T16:06:39.553Z,12.25
2022-11-02T16:09:34.443Z,13.43
2022-11-02T16:12:21.644Z,17.00
2022-11-02T16:15:12.100Z,13.80
2022-11-02T16:17:39.431Z,19.73
2022-11-02T16:20:12.556Z,12.18
2022-11-02T16:22:41.191Z,15.45
2022-11-02T16:25:14.345Z,15.23
2022-11-02T16:27:41.464Z,13.82
2022-11-02T16:30:17.777Z,14.48
2022-11-02T16:32:44.890Z,14.68
2022-11-02T16:35:13.791Z,17.15
2022-11-02T16:37:40.950Z,16.42
2022-11-02T16:40:08.182Z,16.15
2022-11-02T16:42:35.241Z,17.23
2022-11-02T16:45:04.154Z,15.75
2022-11-02T16:47:36.264Z,17.48
2022-11-02T16:50:03.463Z,17.33
2022-11-02T16:52:34.952Z,20.73
2022-11-02T16:55:02.119Z,19.60
2022-11-02T16:57:37.178Z,21.45
2022-11-02T17:00:16.046Z,21.00
2022-11-02T17:02:43.263Z,22.80
2022-11-02T17:05:21.113Z,22.40
2022-11-02T17:07:49.904Z,20.02
2022-11-02T17:10:23.794Z,19.58
2022-11-02T17:12:50.665Z,20.70
2022-11-02T17:15:28.599Z,18.88
2022-11-02T17:18:08.138Z,19.48
2022-11-02T17:20:36.409Z,22.63
2022-11-02T17:23:04.763Z,23.80
2022-11-02T17:25:33.312Z,22.40
2022-11-02T17:28:05.222Z,21.92
2022-11-02T17:30:35.715Z,21.65
2022-11-02T17:33:27.507Z,22.90
2022-11-02T17:36:04.886Z,21.25
2022-11-02T17:38:31.664Z,24.92
2022-11-02T17:40:59.281Z,27.08
2022-11-02T17:43:26.043Z,26.15
2022-11-02T17:45:59.731Z,25.17
2022-11-02T17:48:28.956Z,25.45
2022-11-02T17:50:56.742Z,26.60
2022-11-02T17:53:23.569Z,26.67
2022-11-02T17:55:50.712Z,29.20
2022-11-02T17:58:17.615Z,30.58
2022-11-02T18:00:44.788Z,31.80
2022-11-02T18:03:19.339Z,30.60
2022-11-02T18:05:49.627Z,32.05
2022-11-02T18:08:17.789Z,32.83
2022-11-02T18:10:46.067Z,28.75
2022-11-02T18:13:16.335Z,37.92
2022-11-02T18:15:43.604Z,33.10
2022-11-02T18:18:10.597Z,34.92
2022-11-02T18:20:41.481Z,29.95
2022-11-02T18:23:14.347Z,35.67
2022-11-02T18:25:41.440Z,35.85
2022-11-02T18:28:08.437Z,38.35
2022-11-02T18:30:35.749Z,36.10
2022-11-02T18:33:02.944Z,35.50
2022-11-02T18:35:30.086Z,35.45
2022-11-02T18:37:56.877Z,43.63
2022-11-02T18:40:23.965Z,41.25
2022-11-02T18:42:50.726Z,41.63
2022-11-02T18:45:17.920Z,38.67
2022-11-02T18:47:44.749Z,42.13
2022-11-02T18:50:12.956Z,46.97
2022-11-02T18:52:40.352Z,40.58
2022-11-02T18:55:07.753Z,50.00
2022-11-02T18:57:34.522Z,38.50
2022-11-02T19:00:02.863Z,40.17
2022-11-02T19:02:30.097Z,41.92
2022-11-02T19:04:57.313Z,41.47
2022-11-02T19:07:42.980Z,41.30
2022-11-02T19:10:10.183Z,43.28
2022-11-02T19:12:37.159Z,45.35
2022-11-02T19:15:04.701Z,42.05
2022-11-02T19:17:31.635Z,45.70
2022-11-02T19:19:58.719Z,44.67
2022-11-02T19:22:25.862Z,47.28
2022-11-02T19:24:53.143Z,43.90
2022-11-02T19:27:21.609Z,45.63
2022-11-02T19:29:48.697Z,44.05
2022-11-02T19:32:15.725Z,40.38
2022-11-02T19:34:43.088Z,46.55
2022-11-02T19:37:09.973Z,48.63
2022-11-02T19:39:37.084Z,44.75
2022-11-02T19:42:04.139Z,45.33
2022-11-02T19:44:31.313Z,42.83
2022-11-02T19:46:58.057Z,47.80
2022-11-02T19:49:25.152Z,46.63
2022-11-02T19:51:51.911Z,44.03
2022-11-02T19:54:19.797Z,47.53
2022-11-02T19:56:46.741Z,49.15
2022-11-02T19:59:13.861Z,44.85
2022-11-02T20:01:42.321Z,47.47
2022-11-02T20:04:09.675Z,47.20
2022-11-02T20:06:40.804Z,48.00
2022-11-02T20:09:13.684Z,49.53
2022-11-02T20:11:44.522Z,49.80
2022-11-02T20:14:15.378Z,53.83
2022-11-02T20:16:42.303Z,54.45
2022-11-02T20:19:09.385Z,49.20
2022-11-02T20:21:41.558Z,50.83
2022-11-02T20:24:11.261Z,56.85
2022-11-02T20:26:38.794Z,54.00
2022-11-02T20:29:05.987Z,57.10
2022-11-02T20:31:34.279Z,56.90
2022-11-02T20:34:01.649Z,56.53
2022-11-02T20:36:28.488Z,57.42
2022-11-02T20:38:56.391Z,55.30
2022-11-02T20:41:23.966Z,60.60
2022-11-02T20:43:51.981Z,57.08
2022-11-02T20:46:41.404Z,57.80
2022-11-02T20:49:20.985Z,55.35
2022-11-02T20:51:52.602Z,61.88
2022-11-02T20:54:20.557Z,55.72
2022-11-02T20:56:48.136Z,62.65
2022-11-02T20:59:15.437Z,63.20
2022-11-02T21:01:42.382Z,64.40
2022-11-02T21:04:11.788Z,60.67
2022-11-02T21:06:40.851Z,65.32
2022-11-02T21:09:11.997Z,59.20
2022-11-02T21:11:58.081Z,62.83
2022-11-02T21:14:25.295Z,64.00
2022-11-02T21:16:52.111Z,59.60
2022-11-02T21:19:19.198Z,61.72
2022-11-02T21:21:46.387Z,61.10
2022-11-02T21:24:13.655Z,66.72
2022-11-02T21:26:40.498Z,63.67
2022-11-02T21:29:08.932Z,70.43
2022-11-02T21:31:35.754Z,61.33
2022-11-02T21:34:02.788Z,66.82
2022-11-02T21:36:30.044Z,71.05
2022-11-02T21:38:58.748Z,68.53
2022-11-02T21:41:28.149Z,67.13
2022-11-02T21:43:55.925Z,68.95
2022-11-02T21:46:24.181Z,70.13
2022-11-02T21:48:51.249Z,69.95
2022-11-02T21:51:20.509Z,67.75
2022-11-02T21:53:48.149Z,71.00
2022-11-02T21:56:16.921Z,66.15
2022-11-02T21:58:46.057Z,75.05
2022-11-02T22:01:42.559Z,68.68
2022-11-02T22:04:16.170Z,69.15
2022-11-02T22:06:43.135Z,72.07
2022-11-02T22:09:11.579Z,71.65
2022-11-02T22:11:38.338Z,67.68
2022-11-02T22:14:05.570Z,75.32
2022-11-02T22:16:42.341Z,69.25
2022-11-02T22:19:09.610Z,73.88
2022-11-02T22:21:38.101Z,66.30
2022-11-02T22:24:05.662Z,72.13
2022-11-02T22:26:32.748Z,72.60
2022-11-02T22:29:02.788Z,69.35
2022-11-02T22:31:31.194Z,73.35
2022-11-02T22:33:59.460Z,71.82
2022-11-02T22:36:27.963Z,76.15
2022-11-02T22:38:55.972Z,72.75
2022-11-02T22:41:43.029Z,71.45
2022-11-02T22:44:11.774Z,75.25
2022-11-02T22:46:43.303Z,72.70
2022-11-02T22:49:11.469Z,75.22
2022-11-02T22:51:39.651Z,78.05
2022-11-02T22:54:08.460Z,74.85
2022-11-02T22:56:35.544Z,70.63
2022-11-02T22:59:02.952Z,76.13
2022-11-02T23:01:30.333Z,72.57
2022-11-02T23:03:57.841Z,67.18
2022-11-02T23:06:24.695Z,80.43
2022-11-02T23:08:55.038Z,72.53
2022-11-02T23:11:24.844Z,75.53
2022-11-02T23:13:51.983Z,72.05
2022-11-02T23:16:22.720Z,79.25
2022-11-02T23:19:12.235Z,70.05
2022-11-02T23:21:40.561Z,73.65
2022-11-02T23:24:25.928Z,77.85
2022-11-02T23:29:38.497Z,71.45
2022-11-02T23:35:09.876Z,76.88
2022-11-02T23:37:37.008Z,77.32
2022-11-02T23:40:04.174Z,72.25
2022-11-02T23:42:31.301Z,73.00
2022-11-02T23:44:58.228Z,71.20
2022-11-02T23:47:47.312Z,69.07
2022-11-02T23:50:14.128Z,71.30
2022-11-02T23:53:00.011Z,65.40
2022-11-02T23:55:45.449Z,68.30
